• Join FlightAware (Why Join?)
  • Login
  • US Flag 
06:42AM EDT


 

Airport Tracker/Info


-or-


 

Live Flight TrackerFlight Track Log ✈ N521PM ✈ 23-Jun-2013 ✈ KBED - KMTO

Flight Track Log - Related Links

Times and Time Zones

All times are in EDT time to prevent confusion due to time zone crossing. See the N521PM flight status page for this flight to view local times or setup timezone preferences in your user account.

Time Position Orientation Groundspeed Altitude Reporting Facility
EDT Latitude Longitude Course Direction KTS MPH feet Rate Location/Type
11:53PM 42.4000 -71.3500 216° Southwest 130 150 3,800  Level KA90
11:55PM 42.3667 -71.4117 234° Southwest 140 161 6,100 840 Climbing Boston Center
11:56PM 42.3400 -71.4822 243° Southwest 185 213 6,100 360 Level Boston Center
11:57PM 42.3136 -71.5556 244° Southwest 214 246 6,900 1,200 Climbing Boston Center
11:58PM 42.2994 -71.6206 254° West 209 241 8,600 1,560 Climbing Boston Center
11:59PM 42.2833 -71.6767 249° West 173 199 10,100 1,320 Climbing Boston Center
12:00AM 42.2669 -71.7303 248° West 173 199 11,300 1,320 Climbing Boston Center
12:01AM 42.2506 -71.7922 250° West 168 193 12,800 1,260 Climbing Boston Center
12:02AM 42.2364 -71.8428 249° West 168 193 13,900 1,140 Climbing Boston Center
12:03AM 42.2200 -71.9047 250° West 168 193 15,100 1,140 Climbing Boston Center
12:04AM 42.2056 -71.9553 249° West 163 188 16,200 900 Climbing Boston Center
12:05AM 42.1933 -72.0058 252° West 163 188 17,000 720 Climbing Boston Center
12:06AM 42.1789 -72.0675 252° West 163 188 17,700 900 Climbing Boston Center
12:07AM 42.1750 -72.1208 264° West 163 188 18,800 780 Climbing Boston Center
12:08AM 42.1689 -72.1825 262° West 157 181 19,300 540 Climbing Boston Center
12:09AM 42.1647 -72.2439 265° West 162 186 19,900 300 Climbing Boston Center
12:10AM 42.1586 -72.3086 263° West 167 192 20,000  Climbing Boston Center
12:11AM 42.1503 -72.3842 262° West 180 207 20,000  Level Boston Center
12:12AM 42.1461 -72.4625 266° West 204 235 20,000  Level Boston Center
12:13AM 42.1378 -72.5408 262° West 209 241 20,000  Level Boston Center
12:14AM 42.1314 -72.6192 264° West 214 246 20,000  Level Boston Center
12:15AM 42.1231 -72.6975 262° West 219 252 20,000  Level Boston Center
12:16AM 42.1144 -72.7758 262° West 219 252 20,000  Level Boston Center
12:17AM 42.1058 -72.8542 262° West 219 252 20,000  Level Boston Center
12:18AM 42.0992 -72.9353 264° West 219 252 20,000  Level Boston Center
12:19AM 42.0906 -73.0136 262° West 219 252 20,000  Level Boston Center
12:20AM 42.0839 -73.0919 263° West 219 252 20,000  Level Boston Center
12:21AM 42.0750 -73.1700 261° West 219 252 20,000  Level Boston Center
12:22AM 42.0683 -73.2511 264° West 219 252 20,000  Level Boston Center
12:23AM 42.0592 -73.3292 261° West 219 252 20,000  Level Boston Center
12:24AM 42.0503 -73.4103 262° West 219 252 20,000  Level Boston Center
12:25AM 42.0433 -73.4911 263° West 219 252 20,000  Level Boston Center
12:26AM 42.0364 -73.5694 263° West 219 252 20,000  Level Boston Center
12:27AM 42.0272 -73.6503 261° West 219 252 20,000  Level Boston Center
12:28AM 42.0181 -73.7283 261° West 219 252 20,000  Level Boston Center
12:29AM 42.0086 -73.8119 261° West 219 252 20,000  Level Boston Center
12:30AM 42.0014 -73.8928 263° West 219 252 20,000  Level Boston Center
12:31AM 41.9919 -73.9736 261° West 219 252 20,000  Level Boston Center
12:32AM 41.9825 -74.0544 261° West 219 252 20,000  Level Boston Center
12:33AM 41.9750 -74.1353 263° West 219 252 20,000  Level Boston Center
12:35AM 41.9619 -74.2519 261° West 219 252 20,000  Level New York Center
12:36AM 41.9531 -74.3353 262° West 219 252 20,000  Level New York Center
12:37AM 41.9444 -74.4183 262° West 219 252 20,000  Level New York Center
12:38AM 41.9336 -74.4958 259° West 219 252 20,000  Level New York Center
12:39AM 41.9225 -74.5817 260° West 219 252 20,000  Level New York Center
12:40AM 41.9156 -74.6703 264° West 219 252 20,000  Level New York Center
12:41AM 41.9067 -74.7506 262° West 219 252 20,000  Level New York Center
12:42AM 41.8978 -74.8308 262° West 219 252 20,000  Level New York Center
12:43AM 41.8886 -74.9111 261° West 219 252 20,000  Level New York Center
12:44AM 41.8775 -74.9939 260° West 219 252 20,000  Level New York Center
12:45AM 41.8683 -75.0714 261° West 219 252 20,000  Level New York Center
12:46AM 41.8592 -75.1542 262° West 219 252 20,000  Level New York Center
12:47AM 41.8478 -75.2342 259° West 219 252 20,000  Level New York Center
12:48AM 41.8383 -75.3172 261° West 219 252 20,100  Climbing New York Center
12:49AM 41.8289 -75.4000 261° West 219 252 20,000 -60 Descending New York Center
12:50AM 41.8175 -75.4772 259° West 219 252 20,000  Level New York Center
12:51AM 41.8081 -75.5600 261° West 219 252 20,000  Level New York Center
12:52AM 41.7983 -75.6428 261° West 219 252 20,000  Level New York Center
12:53AM 41.7886 -75.7256 261° West 219 252 20,000  Level New York Center
12:54AM 41.7792 -75.8053 261° West 219 252 20,000  Level New York Center
12:55AM 41.7672 -75.8906 259° West 219 252 20,000  Level New York Center
12:56AM 41.7572 -75.9733 261° West 225 259 20,000  Level New York Center
12:57AM 41.7475 -76.0558 261° West 225 259 20,000  Level New York Center
12:58AM 41.7353 -76.1411 259° West 230 265 20,000  Level New York Center
12:59AM 41.7272 -76.2239 263° West 235 270 20,000  Level New York Center
01:00AM 41.7150 -76.3092 259° West 235 270 20,100  Climbing New York Center
01:01AM 41.7047 -76.3944 261° West 235 270 20,000 -60 Descending New York Center
01:02AM 41.6906 -76.4736 257° West 235 270 20,000  Level New York Center
01:03AM 41.6828 -76.5508 262° West 235 270 20,000  Level New York Center
01:05AM 41.6581 -76.7447 260° West 223 257 20,000  Level Cleveland Center
01:06AM 41.6442 -76.8289 258° West 223 257 20,000  Level Cleveland Center
01:07AM 41.6344 -76.9100 261° West 223 257 20,000  Level Cleveland Center
01:08AM 41.6264 -76.9911 262° West 223 257 20,000  Level Cleveland Center
01:09AM 41.6106 -77.0836 257° West 223 257 20,000  Level Cleveland Center
01:10AM 41.5983 -77.1647 259° West 223 257 20,000  Level Cleveland Center
01:11AM 41.5906 -77.2486 263° West 223 257 20,000  Level Cleveland Center
01:12AM 41.5783 -77.3297 259° West 223 257 20,000  Level Cleveland Center
01:13AM 41.5661 -77.4136 259° West 223 257 20,000  Level Cleveland Center
01:14AM 41.5536 -77.4947 258° West 223 257 20,000  Level Cleveland Center
01:15AM 41.5414 -77.5814 259° West 223 257 20,000  Level Cleveland Center
01:16AM 41.5289 -77.6622 258° West 228 262 20,000  Level Cleveland Center
01:17AM 41.5186 -77.7489 261° West 228 262 20,000  Level Cleveland Center
01:18AM 41.5061 -77.8353 259° West 234 269 20,000  Level Cleveland Center
01:19AM 41.4953 -77.9161 260° West 239 275 20,000  Level Cleveland Center
01:20AM 41.4808 -78.0028 257° West 239 275 20,000  Level Cleveland Center
01:21AM 41.4681 -78.0864 258° West 239 275 20,000  Level Cleveland Center
01:22AM 41.4572 -78.1700 260° West 239 275 20,000  Level Cleveland Center
01:23AM 41.4444 -78.2561 259° West 239 275 20,000  Level Cleveland Center
01:24AM 41.4333 -78.3314 259° West 239 275 20,000  Level Cleveland Center
01:25AM 41.4225 -78.4150 260° West 239 275 20,000  Level Cleveland Center
01:26AM 41.4094 -78.5011 259° West 239 275 20,000  Level Cleveland Center
01:27AM 41.3944 -78.5847 257° West 239 275 20,000  Level Cleveland Center
01:28AM 41.3792 -78.6792 258° West 239 275 20,000  Level Cleveland Center
01:29AM 41.3722 -78.7569 263° West 239 275 20,000  Level Cleveland Center
01:30AM 41.3589 -78.8375 258° West 239 275 20,000  Level Cleveland Center
01:31AM 41.3456 -78.9236 258° West 239 275 20,000  Level Cleveland Center
01:32AM 41.3322 -79.0069 258° West 239 275 20,000  Level Cleveland Center
01:33AM 41.3167 -79.1014 258° West 239 275 20,000  Level Cleveland Center
01:34AM 41.3031 -79.1872 258° West 239 275 20,000  Level Cleveland Center
01:35AM 41.2897 -79.2733 258° West 239 275 20,000  Level Cleveland Center
01:36AM 41.2800 -79.3481 260° West 239 275 20,000  Level Cleveland Center
01:37AM 41.2622 -79.4450 256° West 239 275 20,000  Level Cleveland Center
01:38AM 41.2486 -79.5336 258° West 239 275 20,000  Level Cleveland Center
01:39AM 41.2325 -79.6194 256° West 239 275 20,000  Level Cleveland Center
01:40AM 41.2186 -79.7081 258° West 239 275 20,000  Level Cleveland Center
01:41AM 41.2069 -79.7939 260° West 239 275 20,000  Level Cleveland Center
01:42AM 41.1908 -79.8822 256° West 239 275 20,000  Level Cleveland Center
01:43AM 41.1767 -79.9708 258° West 239 275 20,000  Level Cleveland Center
01:44AM 41.1625 -80.0564 258° West 239 275 20,000  Level Cleveland Center
01:45AM 41.1503 -80.1447 260° West 239 275 20,100  Climbing Cleveland Center
01:46AM 41.1361 -80.2331 258° West 239 275 20,000 -60 Descending Cleveland Center
01:47AM 41.1217 -80.3186 257° West 239 275 20,000  Level Cleveland Center
01:48AM 41.1053 -80.4067 256° West 239 275 20,000  Level Cleveland Center
01:49AM 41.0906 -80.4950 258° West 239 275 20,000  Level Cleveland Center
01:50AM 41.0761 -80.5803 257° West 239 275 20,000  Level Cleveland Center
01:51AM 41.0594 -80.6714 256° West 244 281 20,000  Level Cleveland Center
01:52AM 41.0508 -80.7594 263° West 244 281 20,000  Level Cleveland Center
01:53AM 41.0361 -80.8475 258° West 244 281 20,100  Climbing Cleveland Center
01:54AM 41.0192 -80.9353 256° West 244 281 20,100  Level Cleveland Center
01:55AM 41.0003 -81.0206 254° West 239 275 20,100  Level Cleveland Center
01:56AM 40.9831 -81.1111 256° West 246 283 20,100  Level Cleveland Center
01:57AM 40.9661 -81.1992 256° West 251 289 20,100  Level Cleveland Center
01:58AM 40.9531 -81.2897 259° West 251 289 20,100  Level Cleveland Center
01:59AM 40.9358 -81.3747 255° West 251 289 20,100  Level Cleveland Center
02:00AM 40.9206 -81.4625 257° West 251 289 20,100  Level Cleveland Center
02:01AM 40.9075 -81.5419 258° West 251 289 20,100  Level Cleveland Center
02:02AM 40.8900 -81.6294 255° West 251 289 20,100  Level Cleveland Center
02:03AM 40.8744 -81.7172 257° West 246 283 20,100 -60 Level Cleveland Center
02:04AM 40.8589 -81.8075 257° West 246 283 20,000 -60 Descending Cleveland Center
02:05AM 40.8414 -81.8950 255° West 246 283 20,000  Level Cleveland Center
02:06AM 40.8256 -81.9936 258° West 246 283 20,000  Level Cleveland Center
02:07AM 40.8078 -82.0836 255° West 252 290 20,000  Level Cleveland Center
02:08AM 40.7919 -82.1711 257° West 257 296 20,000  Level Cleveland Center
02:08AM 40.7861 -82.2108 259° West 246 283 20,000  Level Indianapolis Center
02:09AM 40.7692 -82.3000 256° West 247 284 20,000  Level Indianapolis Center
02:10AM 40.7525 -82.3867 256° West 244 281 20,000  Level Indianapolis Center
02:11AM 40.7358 -82.4747 256° West 245 282 20,000  Level Indianapolis Center
02:12AM 40.7214 -82.5483 256° West 246 283 20,000  Level Indianapolis Center
02:13AM 40.7053 -82.6361 256° West 243 280 20,000  Level Indianapolis Center
02:14AM 40.6883 -82.7236 256° West 244 281 20,000  Level Indianapolis Center
02:15AM 40.6725 -82.8114 257° West 244 281 20,000  Level Indianapolis Center
02:16AM 40.6553 -82.8997 256° West 246 283 20,000  Level Indianapolis Center
02:17AM 40.6381 -82.9847 255° West 241 277 20,000  Level Indianapolis Center
02:18AM 40.6219 -83.0689 256° West 237 273 20,000  Level Indianapolis Center
02:19AM 40.6075 -83.1542 257° West 236 272 20,000  Level Indianapolis Center
02:20AM 40.5911 -83.2375 256° West 236 272 20,000  Level Indianapolis Center
02:21AM 40.5731 -83.3222 254° West 237 273 20,000  Level Indianapolis Center
02:22AM 40.5558 -83.4064 255° West 239 275 20,000  Level Indianapolis Center
02:23AM 40.5389 -83.4928 256° West 242 278 20,000  Level Indianapolis Center
02:24AM 40.5228 -83.5819 257° West 249 287 20,000  Level Indianapolis Center
02:25AM 40.5058 -83.6686 256° West 245 282 20,000  Level Indianapolis Center
02:26AM 40.4892 -83.7561 256° West 247 284 20,000  Level Indianapolis Center
02:27AM 40.4706 -83.8417 254° West 245 282 20,000  Level Indianapolis Center
02:28AM 40.4539 -83.9281 256° West 243 280 20,000  Level Indianapolis Center
02:29AM 40.4361 -84.0128 255° West 242 278 20,000  Level Indianapolis Center
02:30AM 40.4197 -84.0983 256° West 241 277 20,000  Level Indianapolis Center
02:31AM 40.4019 -84.1842 255° West 242 278 20,000  Level Indianapolis Center
02:32AM 40.3833 -84.2689 254° West 240 276 20,000  Level Indianapolis Center
02:33AM 40.3667 -84.3544 256° West 241 277 20,000  Level Indianapolis Center
02:34AM 40.3522 -84.4253 255° West 241 277 20,000  Level Indianapolis Center
02:35AM 40.3342 -84.5092 254° West 238 274 20,000  Level Indianapolis Center
02:36AM 40.3178 -84.5928 256° West 237 273 20,000  Level Indianapolis Center
02:37AM 40.2992 -84.6761 254° West 237 273 20,000  Level Indianapolis Center
02:38AM 40.2811 -84.7592 254° West 236 272 20,000  Level Indianapolis Center
02:39AM 40.2636 -84.8442 255° West 239 275 20,000  Level Indianapolis Center
02:40AM 40.2444 -84.9281 253° West 239 275 20,000  Level Indianapolis Center
02:41AM 40.2278 -85.0119 255° West 239 275 20,000  Level Indianapolis Center
02:42AM 40.2092 -85.0956 254° West 238 274 20,000  Level Indianapolis Center
02:43AM 40.1917 -85.1783 255° West 237 273 20,000  Level Indianapolis Center
02:44AM 40.1750 -85.2600 255° West 235 270 20,000  Level Indianapolis Center
02:45AM 40.1569 -85.3428 254° West 236 272 20,000  Level Indianapolis Center
02:46AM 40.1389 -85.4264 254° West 239 275 20,000  Level Indianapolis Center
02:47AM 40.1217 -85.5092 255° West 238 274 20,000  Level Indianapolis Center
02:48AM 40.1022 -85.5922 253° West 240 276 20,000  Level Indianapolis Center
02:49AM 40.0836 -85.6750 254° West 239 275 20,000  Level Indianapolis Center
02:50AM 40.0653 -85.7592 254° West 242 278 20,000  Level Indianapolis Center
02:51AM 40.0478 -85.8428 255° West 240 276 20,000  Level Indianapolis Center
02:52AM 40.0286 -85.9256 253° West 240 276 20,000  Level Indianapolis Center
02:53AM 40.0097 -86.0083 253° West 240 276 20,000  Level Indianapolis Center
02:54AM 39.9919 -86.0900 254° West 236 272 20,000  Level Indianapolis Center
02:55AM 39.9731 -86.1731 253° West 241 277 20,000  Level Indianapolis Center
02:56AM 39.9539 -86.2542 253° West 237 273 20,000  Level Indianapolis Center
02:57AM 39.9361 -86.3356 254° West 236 272 20,000  Level Indianapolis Center
02:58AM 39.9189 -86.4175 255° West 238 274 20,000  Level Indianapolis Center
02:59AM 39.9003 -86.4983 253° West 236 272 20,000 -360 Level Indianapolis Center
03:00AM 39.8769 -86.5986 253° West 243 280 19,300 -900 Descending Indianapolis Center
03:01AM 39.8556 -86.6922 253° West 267 307 18,300 -780 Descending Indianapolis Center
03:02AM 39.8361 -86.7833 254° West 264 304 17,800 -660 Descending Indianapolis Center
03:03AM 39.8144 -86.8739 253° West 263 303 17,000 -1,080 Descending Indianapolis Center
03:04AM 39.7903 -86.9683 252° West 273 314 15,700 -1,140 Descending Indianapolis Center
03:05AM 39.7686 -87.0672 254° West 284 327 14,800 -840 Descending Indianapolis Center
03:06AM 39.7461 -87.1628 253° West 280 322 14,100 -840 Descending Indianapolis Center
03:07AM 39.7250 -87.2567 254° West 274 315 13,200 -900 Descending Indianapolis Center
03:08AM 39.7000 -87.3497 251° West 274 315 12,300 -900 Descending Indianapolis Center
03:09AM 39.6781 -87.4456 253° West 276 318 11,500 -720 Descending Indianapolis Center
03:10AM 39.6497 -87.5342 247° West 270 311 10,900 -600 Descending Indianapolis Center
03:11AM 39.6108 -87.6161 238° Southwest 268 308 10,300 -480 Descending Indianapolis Center
03:12AM 39.5794 -87.6917 242° Southwest 248 285 10,000 -360 Descending Indianapolis Center
03:13AM 39.5489 -87.7614 240° Southwest 230 265 9,600 -660 Descending Indianapolis Center
03:14AM 39.5233 -87.8256 243° Southwest 208 239 8,700 -960 Descending Indianapolis Center
03:15AM 39.4958 -87.8903 241° Southwest 206 237 7,700 -1,020 Descending Indianapolis Center